createdAt,value
2017-08-05T00:00:20.216Z,20.75
2017-08-05T00:01:00.807Z,20.75
2017-08-05T00:01:41.361Z,20.74
2017-08-05T00:02:21.925Z,20.75
2017-08-05T00:03:02.498Z,20.72
2017-08-05T00:03:43.097Z,20.69
2017-08-05T00:04:23.682Z,20.63
2017-08-05T00:05:04.264Z,20.67
2017-08-05T00:05:44.852Z,20.66
2017-08-05T00:06:25.422Z,20.72
2017-08-05T00:07:06.062Z,20.69
2017-08-05T00:07:46.649Z,20.65
2017-08-05T00:08:27.231Z,20.59
2017-08-05T00:09:07.820Z,20.63
2017-08-05T00:09:48.434Z,20.62
2017-08-05T00:10:29.048Z,20.58
2017-08-05T00:11:09.615Z,20.6
2017-08-05T00:11:50.245Z,20.6
2017-08-05T00:12:30.800Z,20.66
2017-08-05T00:13:11.413Z,20.59
2017-08-05T00:13:52.008Z,20.63
2017-08-05T00:14:32.594Z,20.6
2017-08-05T00:15:13.182Z,20.62
2017-08-05T00:15:53.781Z,20.59
2017-08-05T00:16:34.344Z,20.63
2017-08-05T00:17:14.959Z,20.58
2017-08-05T00:17:55.550Z,20.62
2017-08-05T00:18:36.149Z,20.58
2017-08-05T00:19:16.713Z,20.67
2017-08-05T00:19:57.284Z,20.59
2017-08-05T00:20:37.874Z,20.6
2017-08-05T00:21:18.460Z,20.65
2017-08-05T00:21:59.034Z,20.59
2017-08-05T00:22:39.601Z,20.55
2017-08-05T00:23:20.176Z,20.58
2017-08-05T00:24:00.792Z,20.63
2017-08-05T00:24:41.390Z,20.58
2017-08-05T00:25:21.990Z,20.66
2017-08-05T00:26:02.571Z,20.59
2017-08-05T00:26:43.204Z,20.6
2017-08-05T00:27:23.785Z,20.59
2017-08-05T00:28:04.363Z,20.56
2017-08-05T00:28:44.940Z,20.63
2017-08-05T00:29:25.576Z,20.6
2017-08-05T00:30:06.202Z,20.51
2017-08-05T00:30:46.748Z,20.62
2017-08-05T00:31:27.348Z,20.48
2017-08-05T00:32:07.959Z,20.6
2017-08-05T00:32:48.553Z,20.62
2017-08-05T00:33:29.154Z,20.59
2017-08-05T00:34:09.754Z,20.56
2017-08-05T00:34:50.357Z,20.6
2017-08-05T00:35:30.943Z,20.55
2017-08-05T00:36:11.518Z,20.62
2017-08-05T00:36:52.070Z,20.56
2017-08-05T00:37:32.669Z,20.48
2017-08-05T00:38:13.250Z,20.55
2017-08-05T00:38:53.843Z,20.59
2017-08-05T00:39:34.477Z,20.63
2017-08-05T00:40:15.046Z,20.63
2017-08-05T00:40:55.626Z,20.59
2017-08-05T00:41:36.276Z,20.5
2017-08-05T00:42:16.851Z,20.62
2017-08-05T00:42:57.505Z,20.59
2017-08-05T00:43:38.130Z,20.55
2017-08-05T00:44:18.696Z,20.56
2017-08-05T00:44:59.295Z,20.56
2017-08-05T00:45:39.886Z,20.59
2017-08-05T00:46:20.480Z,20.66
2017-08-05T00:47:01.043Z,20.58
2017-08-05T00:47:41.654Z,20.62
2017-08-05T00:48:22.262Z,20.56
2017-08-05T00:49:02.870Z,20.58
2017-08-05T00:49:43.432Z,20.58
2017-08-05T00:50:24.035Z,20.52
2017-08-05T00:51:04.652Z,20.58
2017-08-05T00:51:45.247Z,20.51
2017-08-05T00:52:25.830Z,20.55
2017-08-05T00:53:06.392Z,20.47
2017-08-05T00:53:47.024Z,20.58
2017-08-05T00:54:27.622Z,20.55
2017-08-05T00:55:08.244Z,20.48
2017-08-05T00:55:48.800Z,20.51
2017-08-05T00:56:29.382Z,20.5
2017-08-05T00:57:09.997Z,20.5
2017-08-05T00:57:50.551Z,20.44
2017-08-05T00:58:31.162Z,20.51
2017-08-05T00:59:12.610Z,20.41
2017-08-05T00:59:53.224Z,20.48
2017-08-05T01:00:33.797Z,20.5
2017-08-05T01:01:14.405Z,20.5
2017-08-05T01:01:54.978Z,20.5
2017-08-05T01:02:35.554Z,20.48
2017-08-05T01:03:16.130Z,20.51
2017-08-05T01:03:56.696Z,20.5
2017-08-05T01:04:37.299Z,20.41
2017-08-05T01:05:17.886Z,20.44
2017-08-05T01:05:58.445Z,20.43
2017-08-05T01:06:39.036Z,20.32
2017-08-05T01:07:19.645Z,20.4
2017-08-05T01:08:00.238Z,20.4
2017-08-05T01:08:40.822Z,20.32
2017-08-05T01:09:21.401Z,20.32
2017-08-05T01:10:02.024Z,20.28
2017-08-05T01:10:42.607Z,20.36
2017-08-05T01:11:23.191Z,20.39
2017-08-05T01:12:03.765Z,20.25
2017-08-05T01:12:44.404Z,20.29
2017-08-05T01:13:24.970Z,20.34
2017-08-05T01:14:05.545Z,20.25
2017-08-05T01:14:46.137Z,20.28
2017-08-05T01:15:26.712Z,20.39
2017-08-05T01:16:07.278Z,20.21
2017-08-05T01:16:47.882Z,20.19
2017-08-05T01:17:28.452Z,20.25
2017-08-05T01:18:09.033Z,20.29
2017-08-05T01:18:49.611Z,20.25
2017-08-05T01:19:30.201Z,20.24
2017-08-05T01:20:10.839Z,20.19
2017-08-05T01:20:51.444Z,20.18
2017-08-05T01:21:32.042Z,20.14
2017-08-05T01:22:12.685Z,20.18
2017-08-05T01:22:53.257Z,20.11
2017-08-05T01:23:33.840Z,20.18
2017-08-05T01:24:14.413Z,20.25
2017-08-05T01:24:55.009Z,20.19
2017-08-05T01:25:35.599Z,20.22
2017-08-05T01:26:16.190Z,20.13
2017-08-05T01:26:56.786Z,20.13
2017-08-05T01:27:37.425Z,20.18
2017-08-05T01:28:17.982Z,20.09
2017-08-05T01:28:58.560Z,20.11
2017-08-05T01:29:39.218Z,20.06
2017-08-05T01:30:19.828Z,20.09
2017-08-05T01:31:00.388Z,20.03
2017-08-05T01:31:40.964Z,20.06
2017-08-05T01:32:21.529Z,20
2017-08-05T01:33:02.117Z,20.04
2017-08-05T01:33:42.690Z,20.04
2017-08-05T01:34:23.277Z,19.94
2017-08-05T01:35:03.861Z,20.03
2017-08-05T01:35:44.443Z,19.94
2017-08-05T01:36:25.023Z,19.92
2017-08-05T01:37:05.592Z,19.92
2017-08-05T01:37:46.165Z,19.92
2017-08-05T01:38:26.760Z,20.03
2017-08-05T01:39:07.330Z,19.92
2017-08-05T01:39:47.897Z,19.95
2017-08-05T01:40:28.468Z,19.96
2017-08-05T01:41:09.067Z,19.89
2017-08-05T01:41:49.682Z,19.95
2017-08-05T01:42:30.265Z,19.92
2017-08-05T01:43:10.856Z,19.91
2017-08-05T01:43:51.431Z,19.89
2017-08-05T01:44:32.024Z,19.94
2017-08-05T01:45:12.595Z,19.92
2017-08-05T01:45:53.187Z,19.86
2017-08-05T01:46:33.760Z,19.95
2017-08-05T01:47:14.342Z,19.96
2017-08-05T01:47:54.972Z,19.96
2017-08-05T01:48:35.555Z,19.86
2017-08-05T01:49:16.171Z,19.96
2017-08-05T01:49:56.769Z,19.88
2017-08-05T01:50:37.375Z,19.95
2017-08-05T01:51:17.940Z,19.94
2017-08-05T01:51:58.555Z,19.96
2017-08-05T01:52:39.127Z,19.94
2017-08-05T01:53:19.701Z,20
2017-08-05T01:54:00.309Z,19.95
2017-08-05T01:54:40.874Z,19.99
2017-08-05T01:55:21.447Z,19.89
2017-08-05T01:56:02.037Z,19.92
2017-08-05T01:56:42.608Z,19.96
2017-08-05T01:57:23.191Z,19.89
2017-08-05T01:58:03.776Z,19.94
2017-08-05T01:58:44.359Z,19.88
2017-08-05T01:59:24.965Z,19.99
2017-08-05T02:00:05.651Z,19.91
2017-08-05T02:00:46.157Z,19.95
2017-08-05T02:01:26.734Z,19.89
2017-08-05T02:02:07.382Z,19.92
2017-08-05T02:02:47.952Z,19.91
2017-08-05T02:03:28.564Z,19.89
2017-08-05T02:04:09.174Z,19.88
2017-08-05T02:04:49.762Z,19.89
2017-08-05T02:05:30.339Z,19.86
2017-08-05T02:06:10.933Z,19.88
2017-08-05T02:06:51.522Z,19.92
2017-08-05T02:07:32.132Z,19.89
2017-08-05T02:08:12.706Z,19.94
2017-08-05T02:08:53.272Z,19.82
2017-08-05T02:09:33.850Z,19.88
2017-08-05T02:10:14.470Z,19.89
2017-08-05T02:10:55.060Z,19.85
2017-08-05T02:11:35.646Z,19.85
2017-08-05T02:12:16.222Z,19.89
2017-08-05T02:12:56.856Z,19.89
2017-08-05T02:13:37.433Z,19.86
2017-08-05T02:14:18.053Z,19.91
2017-08-05T02:14:58.630Z,19.77
2017-08-05T02:15:39.208Z,19.92
2017-08-05T02:16:19.801Z,19.92
2017-08-05T02:17:00.374Z,19.88
2017-08-05T02:17:40.993Z,19.84
2017-08-05T02:18:21.557Z,19.79
2017-08-05T02:19:02.194Z,19.74
2017-08-05T02:19:42.795Z,19.79
2017-08-05T02:20:23.393Z,19.73
2017-08-05T02:21:03.959Z,19.77
2017-08-05T02:21:44.537Z,19.7
2017-08-05T02:22:25.122Z,19.76
2017-08-05T02:23:05.718Z,19.77
2017-08-05T02:23:46.299Z,19.82
2017-08-05T02:24:26.888Z,19.76
2017-08-05T02:25:07.469Z,19.76
2017-08-05T02:25:48.053Z,19.85
2017-08-05T02:26:28.649Z,19.76
2017-08-05T02:27:09.238Z,19.82
2017-08-05T02:27:49.803Z,19.73
2017-08-05T02:28:30.387Z,19.79
2017-08-05T02:29:10.983Z,19.79
2017-08-05T02:29:51.572Z,19.71
2017-08-05T02:30:32.145Z,19.77
2017-08-05T02:31:12.785Z,19.67
2017-08-05T02:31:53.346Z,19.69
2017-08-05T02:32:33.931Z,19.7
2017-08-05T02:33:14.625Z,19.67
2017-08-05T02:33:55.175Z,19.73
2017-08-05T02:34:35.770Z,19.66
2017-08-05T02:35:16.374Z,19.64
2017-08-05T02:35:56.966Z,19.7
2017-08-05T02:36:37.538Z,19.64
2017-08-05T02:37:18.119Z,19.7
2017-08-05T02:37:58.686Z,19.64
2017-08-05T02:38:39.265Z,19.66
2017-08-05T02:39:19.848Z,19.69
2017-08-05T02:40:00.457Z,19.67
2017-08-05T02:40:41.046Z,19.69
2017-08-05T02:41:21.605Z,19.71
2017-08-05T02:42:02.215Z,19.74
2017-08-05T02:42:42.821Z,19.64
2017-08-05T02:43:23.398Z,19.69
2017-08-05T02:44:04.003Z,19.67
2017-08-05T02:44:44.567Z,19.67
2017-08-05T02:45:25.181Z,19.54
2017-08-05T02:46:05.784Z,19.67
2017-08-05T02:46:46.387Z,19.58
2017-08-05T02:47:26.965Z,19.56
2017-08-05T02:48:07.554Z,19.62
2017-08-05T02:48:48.167Z,19.62
2017-08-05T02:49:28.750Z,19.58
2017-08-05T02:50:09.317Z,19.56
2017-08-05T02:50:49.894Z,19.55
2017-08-05T02:51:31.274Z,19.48
2017-08-05T02:52:11.857Z,19.49
2017-08-05T02:52:52.436Z,19.51
2017-08-05T02:53:33.032Z,19.55
2017-08-05T02:54:13.618Z,19.59
2017-08-05T02:54:54.224Z,19.48
2017-08-05T02:55:34.791Z,19.54
2017-08-05T02:56:15.384Z,19.52
2017-08-05T02:56:55.968Z,19.49
2017-08-05T02:57:36.561Z,19.45
2017-08-05T02:58:17.145Z,19.48
2017-08-05T02:58:57.716Z,19.51
2017-08-05T02:59:38.361Z,19.52
2017-08-05T03:00:18.922Z,19.41
2017-08-05T03:00:59.526Z,19.4
2017-08-05T03:01:40.089Z,19.52
2017-08-05T03:02:20.684Z,19.44
2017-08-05T03:03:01.268Z,19.39
2017-08-05T03:03:41.847Z,19.37
2017-08-05T03:04:22.433Z,19.41
2017-08-05T03:05:03.024Z,19.37
2017-08-05T03:05:43.600Z,19.33
2017-08-05T03:06:24.192Z,19.41
2017-08-05T03:07:04.781Z,19.37
2017-08-05T03:07:45.366Z,19.34
2017-08-05T03:08:25.942Z,19.37
2017-08-05T03:09:06.537Z,19.41
2017-08-05T03:09:47.167Z,19.3
2017-08-05T03:10:27.759Z,19.24
2017-08-05T03:11:08.326Z,19.24
2017-08-05T03:11:48.891Z,19.31
2017-08-05T03:12:29.581Z,19.26
2017-08-05T03:13:10.144Z,19.31
2017-08-05T03:13:50.727Z,19.29
2017-08-05T03:14:31.309Z,19.26
2017-08-05T03:15:11.894Z,19.26
2017-08-05T03:15:52.461Z,19.26
2017-08-05T03:16:33.048Z,19.22
2017-08-05T03:17:13.643Z,19.18
2017-08-05T03:17:54.199Z,19.19
2017-08-05T03:18:34.776Z,19.22
2017-08-05T03:19:15.353Z,19.21
2017-08-05T03:19:55.931Z,19.15
2017-08-05T03:20:36.530Z,19.14
2017-08-05T03:21:17.113Z,19.18
2017-08-05T03:21:57.681Z,19.15
2017-08-05T03:22:38.255Z,19.19
2017-08-05T03:23:18.823Z,19.22
2017-08-05T03:23:59.400Z,19.12
2017-08-05T03:24:39.963Z,19.12
2017-08-05T03:25:20.533Z,19.24
2017-08-05T03:26:01.149Z,19.19
2017-08-05T03:26:41.743Z,19.24
2017-08-05T03:27:22.316Z,19.26
2017-08-05T03:28:02.881Z,19.21
2017-08-05T03:28:43.478Z,19.14
2017-08-05T03:29:24.081Z,19.18
2017-08-05T03:30:04.666Z,19.22
2017-08-05T03:30:45.250Z,19.22
2017-08-05T03:31:25.832Z,19.24
2017-08-05T03:32:06.554Z,19.22
2017-08-05T03:32:47.169Z,19.16
2017-08-05T03:33:27.758Z,19.22
2017-08-05T03:34:08.348Z,19.15
2017-08-05T03:34:49.063Z,19.14
2017-08-05T03:35:29.677Z,19.21
2017-08-05T03:36:10.276Z,19.21
2017-08-05T03:36:50.879Z,19.22
2017-08-05T03:37:31.474Z,19.18
2017-08-05T03:38:12.181Z,19.27
2017-08-05T03:38:52.772Z,19.18
2017-08-05T03:39:33.355Z,19.21
2017-08-05T03:40:13.942Z,19.18
2017-08-05T03:40:54.566Z,19.12
2017-08-05T03:41:35.148Z,19.27
2017-08-05T03:42:15.731Z,19.16
2017-08-05T03:42:56.378Z,19.14
2017-08-05T03:43:36.944Z,19.18
2017-08-05T03:44:17.562Z,19.04
2017-08-05T03:44:58.140Z,19.11
2017-08-05T03:45:38.700Z,19.09
2017-08-05T03:46:19.296Z,19.09
2017-08-05T03:46:59.938Z,19.04
2017-08-05T03:47:40.507Z,19.04
2017-08-05T03:48:21.086Z,19.02
2017-08-05T03:49:01.833Z,19.04
2017-08-05T03:49:42.456Z,19.08
2017-08-05T03:50:23.316Z,18.96
2017-08-05T03:51:03.891Z,19.02
2017-08-05T03:51:44.490Z,18.99
2017-08-05T03:52:25.070Z,19.11
2017-08-05T03:53:05.667Z,19.04
2017-08-05T03:53:46.259Z,18.95
2017-08-05T03:54:26.833Z,19.09
2017-08-05T03:55:07.436Z,19.04
2017-08-05T03:55:48.011Z,19.08
2017-08-05T03:56:28.582Z,18.99
2017-08-05T03:57:09.153Z,19.02
2017-08-05T03:57:49.738Z,19.09
2017-08-05T03:58:30.314Z,19.09
2017-08-05T03:59:10.889Z,19.02
2017-08-05T03:59:51.499Z,19.07
2017-08-05T04:00:32.045Z,19.04
2017-08-05T04:01:12.658Z,18.96
2017-08-05T04:01:53.321Z,18.93
2017-08-05T04:02:33.888Z,19.02
2017-08-05T04:03:14.475Z,19.02
2017-08-05T04:03:55.068Z,19
2017-08-05T04:04:35.692Z,18.89
2017-08-05T04:05:16.327Z,18.93
2017-08-05T04:05:56.897Z,18.99
2017-08-05T04:06:37.468Z,18.88
2017-08-05T04:07:18.044Z,18.89
2017-08-05T04:07:58.632Z,18.9
2017-08-05T04:08:39.238Z,18.88
2017-08-05T04:09:19.809Z,18.89
2017-08-05T04:10:00.388Z,18.88
2017-08-05T04:10:40.969Z,18.89
2017-08-05T04:11:21.540Z,18.88
2017-08-05T04:12:02.124Z,19
2017-08-05T04:12:42.762Z,18.96
2017-08-05T04:13:23.301Z,18.99
2017-08-05T04:14:03.882Z,18.98
2017-08-05T04:14:44.475Z,18.93
2017-08-05T04:15:25.072Z,18.89
2017-08-05T04:16:05.659Z,18.92
2017-08-05T04:16:46.241Z,18.92
2017-08-05T04:17:26.836Z,18.96
2017-08-05T04:18:07.404Z,18.9
2017-08-05T04:18:47.989Z,19.07
2017-08-05T04:19:28.567Z,18.9
2017-08-05T04:20:09.203Z,19
2017-08-05T04:20:49.805Z,18.99
2017-08-05T04:21:30.381Z,18.88
2017-08-05T04:22:10.943Z,18.9
2017-08-05T04:22:51.518Z,18.92
2017-08-05T04:23:32.111Z,18.88
2017-08-05T04:24:12.690Z,19.04
2017-08-05T04:24:53.280Z,18.95
2017-08-05T04:25:33.861Z,19
2017-08-05T04:26:14.471Z,18.95
2017-08-05T04:26:55.051Z,18.95
2017-08-05T04:27:35.650Z,19.02
2017-08-05T04:28:16.219Z,19.02
2017-08-05T04:28:56.785Z,19
2017-08-05T04:29:37.372Z,18.95
2017-08-05T04:30:17.932Z,18.98
2017-08-05T04:30:58.529Z,18.96
2017-08-05T04:31:39.103Z,18.96
2017-08-05T04:32:19.685Z,19.04
2017-08-05T04:33:00.369Z,18.93
2017-08-05T04:33:41.033Z,18.9
2017-08-05T04:34:21.598Z,18.9
2017-08-05T04:35:02.185Z,18.98
2017-08-05T04:35:42.804Z,18.98
2017-08-05T04:36:23.388Z,18.98
2017-08-05T04:37:03.976Z,18.99
2017-08-05T04:37:44.546Z,18.92
2017-08-05T04:38:25.135Z,18.96
2017-08-05T04:39:05.748Z,18.92
2017-08-05T04:39:46.354Z,18.96
2017-08-05T04:40:27.075Z,19.07
2017-08-05T04:41:07.970Z,18.99
2017-08-05T04:41:48.571Z,19
2017-08-05T04:42:29.175Z,19
2017-08-05T04:43:09.762Z,19.02
2017-08-05T04:43:50.368Z,18.96
2017-08-05T04:44:30.970Z,18.92
2017-08-05T04:45:11.567Z,18.99
2017-08-05T04:45:52.192Z,19.09
2017-08-05T04:46:32.759Z,19
2017-08-05T04:47:13.360Z,19.04
2017-08-05T04:47:53.950Z,19.04
2017-08-05T04:48:34.521Z,18.98
2017-08-05T04:49:15.113Z,19.07
2017-08-05T04:49:55.686Z,19.02
2017-08-05T04:50:36.277Z,18.96
2017-08-05T04:51:16.948Z,19.07
2017-08-05T04:51:57.540Z,19.08
2017-08-05T04:52:38.120Z,19.02
2017-08-05T04:53:18.685Z,19.02
2017-08-05T04:53:59.307Z,19.07
2017-08-05T04:54:39.894Z,19.04
2017-08-05T04:55:20.484Z,18.99
2017-08-05T04:56:01.088Z,19.08
2017-08-05T04:56:41.677Z,19.08
2017-08-05T04:57:22.271Z,19.08
2017-08-05T04:58:02.856Z,19.15
2017-08-05T04:58:43.436Z,19.15
2017-08-05T04:59:24.048Z,19.18
2017-08-05T05:00:04.655Z,19.18
2017-08-05T05:00:45.232Z,19.16
2017-08-05T05:01:25.821Z,19.12
2017-08-05T05:02:06.394Z,19.18
2017-08-05T05:02:46.968Z,19.16
2017-08-05T05:03:27.540Z,19.12
2017-08-05T05:04:08.112Z,19.15
2017-08-05T05:04:48.715Z,19.14
2017-08-05T05:05:29.314Z,19.14
2017-08-05T05:06:09.894Z,19.12
2017-08-05T05:06:50.467Z,19.16
2017-08-05T05:07:31.034Z,19.14
2017-08-05T05:08:11.646Z,19.15
2017-08-05T05:08:52.240Z,19.19
2017-08-05T05:09:32.815Z,19.22
2017-08-05T05:10:13.383Z,19.26
2017-08-05T05:10:53.960Z,19.14
2017-08-05T05:11:34.621Z,19.16
2017-08-05T05:12:15.241Z,19.22
2017-08-05T05:12:55.837Z,19.3
2017-08-05T05:13:36.422Z,19.26
2017-08-05T05:14:16.988Z,19.31
2017-08-05T05:14:57.567Z,19.29
2017-08-05T05:15:38.146Z,19.3
2017-08-05T05:16:18.723Z,19.3
2017-08-05T05:16:59.328Z,19.34
2017-08-05T05:17:39.910Z,19.4
2017-08-05T05:18:20.525Z,19.36
2017-08-05T05:19:01.112Z,19.36
2017-08-05T05:19:41.705Z,19.36
2017-08-05T05:20:22.285Z,19.39
2017-08-05T05:21:02.928Z,19.37
2017-08-05T05:21:43.525Z,19.37
2017-08-05T05:22:24.199Z,19.36
2017-08-05T05:23:04.761Z,19.4
2017-08-05T05:23:45.398Z,19.47
2017-08-05T05:24:25.993Z,19.37
2017-08-05T05:25:06.598Z,19.45
2017-08-05T05:25:47.170Z,19.4
2017-08-05T05:26:27.746Z,19.47
2017-08-05T05:27:08.350Z,19.52
2017-08-05T05:27:48.958Z,19.48
2017-08-05T05:28:29.535Z,19.52
2017-08-05T05:29:10.119Z,19.51
2017-08-05T05:29:50.712Z,19.52
2017-08-05T05:30:31.337Z,19.48
2017-08-05T05:31:11.921Z,19.58
2017-08-05T05:31:52.503Z,19.47
2017-08-05T05:32:33.075Z,19.45
2017-08-05T05:33:13.658Z,19.47
2017-08-05T05:33:54.231Z,19.64
2017-08-05T05:34:34.797Z,19.62
2017-08-05T05:35:15.413Z,19.52
2017-08-05T05:35:55.980Z,19.58
2017-08-05T05:36:36.626Z,19.59
2017-08-05T05:37:17.235Z,19.58
2017-08-05T05:37:57.802Z,19.62
2017-08-05T05:38:38.384Z,19.62
2017-08-05T05:39:18.989Z,19.59
2017-08-05T05:39:59.593Z,19.69
2017-08-05T05:40:40.187Z,19.69
2017-08-05T05:41:20.779Z,19.66
2017-08-05T05:42:01.666Z,19.81
2017-08-05T05:42:42.284Z,19.85
2017-08-05T05:43:22.982Z,19.82
2017-08-05T05:44:03.698Z,19.79
2017-08-05T05:44:44.284Z,19.92
2017-08-05T05:45:24.895Z,19.92
2017-08-05T05:46:05.571Z,19.91
2017-08-05T05:46:46.125Z,20
2017-08-05T05:47:27.166Z,20.04
2017-08-05T05:48:07.795Z,20.07
2017-08-05T05:48:48.369Z,20.13
2017-08-05T05:49:29.005Z,20.14
2017-08-05T05:50:09.614Z,20.24
2017-08-05T05:50:51.430Z,20.41
2017-08-05T05:51:33.027Z,20.44
2017-08-05T05:52:14.316Z,20.52
2017-08-05T05:52:55.484Z,20.63
2017-08-05T05:55:14.392Z,20.92
2017-08-05T05:55:54.949Z,21.09
2017-08-05T05:56:35.548Z,21.07
2017-08-05T05:57:16.130Z,21.21
2017-08-05T05:57:56.822Z,21.25
2017-08-05T05:58:37.418Z,21.36
2017-08-05T05:59:18.041Z,21.36
2017-08-05T05:59:58.618Z,21.52
2017-08-05T06:00:39.204Z,21.5
2017-08-05T06:01:19.797Z,21.64
2017-08-05T06:02:00.404Z,21.75
2017-08-05T06:02:41.485Z,21.85
2017-08-05T06:03:22.191Z,21.89
2017-08-05T06:04:02.970Z,22
2017-08-05T06:04:43.576Z,22.07
2017-08-05T06:05:24.156Z,22.15
2017-08-05T06:06:04.792Z,22.22
2017-08-05T06:06:45.321Z,22.25
2017-08-05T06:07:25.912Z,22.29
2017-08-05T06:08:06.520Z,22.41
2017-08-05T06:08:47.104Z,22.43
2017-08-05T06:09:27.737Z,22.47
2017-08-05T06:10:08.310Z,22.59
2017-08-05T06:10:48.889Z,22.62
2017-08-05T06:11:29.481Z,22.73
2017-08-05T06:12:10.091Z,22.75
2017-08-05T06:12:50.694Z,22.87
2017-08-05T06:13:31.292Z,22.9
2017-08-05T06:14:11.953Z,22.96
2017-08-05T06:14:52.540Z,22.99
2017-08-05T06:16:30.201Z,22.91
2017-08-05T06:17:10.791Z,22.83
2017-08-05T06:17:51.367Z,22.83
2017-08-05T06:18:31.962Z,22.75
2017-08-05T06:19:12.531Z,22.8
2017-08-05T06:19:53.144Z,22.76
2017-08-05T06:20:33.718Z,22.91
2017-08-05T06:21:14.294Z,22.85
2017-08-05T06:21:54.875Z,23.09
2017-08-05T06:22:35.485Z,23.17
2017-08-05T06:23:16.076Z,23.25
2017-08-05T06:23:56.701Z,23.36
2017-08-05T06:24:37.287Z,23.46
2017-08-05T06:25:17.865Z,23.73
2017-08-05T06:25:58.424Z,23.77
2017-08-05T06:26:39.009Z,23.98
2017-08-05T06:27:19.592Z,24.03
2017-08-05T06:28:00.172Z,24.13
2017-08-05T06:28:40.745Z,24.24
2017-08-05T06:29:21.344Z,24.24
2017-08-05T06:30:01.917Z,24.3
2017-08-05T06:30:42.520Z,24.39
2017-08-05T06:31:23.144Z,24.42
2017-08-05T06:32:03.682Z,24.58
2017-08-05T06:32:44.299Z,24.61
2017-08-05T06:33:24.906Z,24.73
2017-08-05T06:34:05.506Z,24.74
2017-08-05T06:34:46.115Z,24.77
2017-08-05T06:35:26.704Z,24.77
2017-08-05T06:36:07.295Z,24.77
2017-08-05T06:36:47.870Z,24.69
2017-08-05T06:37:28.479Z,24.76
2017-08-05T06:38:09.055Z,24.73
2017-08-05T06:38:49.618Z,24.77
2017-08-05T06:39:30.194Z,24.85
2017-08-05T06:40:12.683Z,24.89
2017-08-05T06:40:53.258Z,24.88
2017-08-05T06:41:33.833Z,25.03
2017-08-05T06:42:14.418Z,25.08
2017-08-05T06:42:55.008Z,25.16
2017-08-05T06:43:35.589Z,25.23
2017-08-05T06:44:16.171Z,25.33
2017-08-05T06:44:56.806Z,25.47
2017-08-05T06:45:37.389Z,25.38
2017-08-05T06:46:18.001Z,25.47
2017-08-05T06:46:58.580Z,25.58
2017-08-05T06:47:39.167Z,25.55
2017-08-05T06:48:19.775Z,25.66
2017-08-05T06:49:00.368Z,25.72
2017-08-05T06:49:40.989Z,25.72
2017-08-05T06:50:21.602Z,25.83
2017-08-05T06:51:02.192Z,25.85
2017-08-05T06:51:42.806Z,25.95
2017-08-05T06:52:23.385Z,25.95
2017-08-05T06:53:03.986Z,26.05
2017-08-05T06:53:44.572Z,26.1
2017-08-05T06:54:25.155Z,26.06
2017-08-05T06:55:05.738Z,26.21
2017-08-05T06:55:46.316Z,26.13
2017-08-05T06:56:26.905Z,26.21
2017-08-05T06:57:07.487Z,26.18
2017-08-05T06:57:48.091Z,26.16
2017-08-05T06:58:28.668Z,26.25
2017-08-05T06:59:09.239Z,26.28
2017-08-05T06:59:50.038Z,26.25
2017-08-05T07:00:30.640Z,26.28
2017-08-05T07:01:11.209Z,26.26
2017-08-05T07:01:51.817Z,26.37
2017-08-05T07:02:32.389Z,26.4
2017-08-05T07:03:12.958Z,26.41
2017-08-05T07:03:53.549Z,26.48
2017-08-05T07:04:34.126Z,26.4
2017-08-05T07:05:14.696Z,26.51
2017-08-05T07:05:55.336Z,26.43
2017-08-05T07:06:35.918Z,26.47
2017-08-05T07:07:16.533Z,26.58
2017-08-05T07:07:57.098Z,26.47
2017-08-05T07:08:37.713Z,26.58
2017-08-05T07:09:18.328Z,26.62
2017-08-05T07:09:58.906Z,26.59
2017-08-05T07:10:39.489Z,26.65
2017-08-05T07:11:20.090Z,26.66
2017-08-05T07:12:00.658Z,26.66
2017-08-05T07:12:41.326Z,26.71
2017-08-05T07:13:21.901Z,26.7
2017-08-05T07:14:02.484Z,26.68
2017-08-05T07:14:43.072Z,26.7
2017-08-05T07:15:23.695Z,26.77
2017-08-05T07:16:04.290Z,26.78
2017-08-05T07:16:44.921Z,26.85
2017-08-05T07:17:25.512Z,26.93
2017-08-05T07:18:06.101Z,26.95
2017-08-05T07:18:46.712Z,26.96
2017-08-05T07:19:27.265Z,27
2017-08-05T07:20:07.869Z,27
2017-08-05T07:20:48.461Z,27
2017-08-05T07:21:29.049Z,27.07
2017-08-05T07:23:16.595Z,27.17
2017-08-05T07:23:57.184Z,27.22
2017-08-05T07:24:37.766Z,27.21
2017-08-05T07:25:18.366Z,27.27
2017-08-05T07:25:58.959Z,27.32
2017-08-05T07:26:39.549Z,27.36
2017-08-05T07:27:20.139Z,27.48
2017-08-05T07:28:00.781Z,27.37
2017-08-05T07:28:41.372Z,27.39
2017-08-05T07:29:21.993Z,27.45
2017-08-05T07:30:02.588Z,27.52
2017-08-05T07:30:43.199Z,27.52
2017-08-05T07:31:23.799Z,27.51
2017-08-05T07:32:04.397Z,27.54
2017-08-05T07:32:44.987Z,27.52
2017-08-05T07:33:25.586Z,27.59
2017-08-05T07:34:06.161Z,27.58
2017-08-05T07:34:46.735Z,27.55
2017-08-05T07:35:27.326Z,27.67
2017-08-05T07:36:08.008Z,27.73
2017-08-05T07:36:48.609Z,27.75
2017-08-05T07:37:29.187Z,27.77
2017-08-05T07:38:09.779Z,27.95
2017-08-05T07:38:50.421Z,27.93
2017-08-05T07:39:31.042Z,28.01
2017-08-05T07:40:11.650Z,28.07
2017-08-05T07:40:52.272Z,28.12
2017-08-05T07:41:32.865Z,28.17
2017-08-05T07:42:13.489Z,28.25
2017-08-05T07:42:54.078Z,28.1
2017-08-05T07:43:34.652Z,28.27
2017-08-05T07:44:15.222Z,28.26
2017-08-05T07:44:55.808Z,28.25
2017-08-05T07:45:36.387Z,28.26
2017-08-05T07:46:16.975Z,28.26
2017-08-05T07:46:57.572Z,28.22
2017-08-05T07:47:38.140Z,28.22
2017-08-05T07:48:18.707Z,28.27
2017-08-05T07:48:59.283Z,28.32
2017-08-05T07:49:39.905Z,28.27
2017-08-05T07:50:20.484Z,28.3
2017-08-05T07:51:01.075Z,28.29
2017-08-05T07:51:41.667Z,28.38
2017-08-05T07:52:22.300Z,28.38
2017-08-05T07:53:02.902Z,28.44
2017-08-05T07:53:43.485Z,28.44
2017-08-05T07:54:24.066Z,28.35
2017-08-05T07:55:04.697Z,28.29
2017-08-05T07:55:45.342Z,28.27
2017-08-05T07:56:25.936Z,28.35
2017-08-05T07:57:06.533Z,28.25
2017-08-05T07:57:47.152Z,28.22
2017-08-05T07:58:27.751Z,28.26
2017-08-05T07:59:08.339Z,28.22
2017-08-05T07:59:48.946Z,28.26
2017-08-05T08:00:29.583Z,28.25
2017-08-05T08:01:10.158Z,28.14
2017-08-05T08:01:50.779Z,28.15
2017-08-05T08:02:31.420Z,28.15
2017-08-05T08:03:12.019Z,28.11
2017-08-05T08:03:52.600Z,28.08
2017-08-05T08:04:33.224Z,28.15
2017-08-05T08:05:13.932Z,28.05
2017-08-05T08:05:54.527Z,28.04
2017-08-05T08:06:35.183Z,28.02
2017-08-05T08:07:15.747Z,27.98
2017-08-05T08:07:56.363Z,28.07
2017-08-05T08:08:36.935Z,28.08
2017-08-05T08:09:17.562Z,28.02
2017-08-05T08:09:58.174Z,28
2017-08-05T08:10:38.764Z,28
2017-08-05T08:11:19.449Z,27.96
2017-08-05T08:12:00.099Z,28.02
2017-08-05T08:12:40.743Z,28.14
2017-08-05T08:13:22.037Z,28.14
2017-08-05T08:14:02.907Z,28.2
2017-08-05T08:14:44.199Z,28.2
2017-08-05T08:15:25.744Z,28.14
2017-08-05T08:16:07.072Z,28.15
2017-08-05T08:16:47.719Z,28.11
2017-08-05T08:17:28.302Z,28.1
2017-08-05T08:18:08.920Z,28.11
2017-08-05T08:18:49.496Z,28.12
2017-08-05T08:19:30.058Z,28.12
2017-08-05T08:20:10.706Z,28.25
2017-08-05T08:20:51.304Z,28.23
2017-08-05T08:21:31.887Z,28.2
2017-08-05T08:22:12.468Z,28.22
2017-08-05T08:22:53.049Z,28.27
2017-08-05T08:23:33.682Z,28.27
2017-08-05T08:24:14.278Z,28.25
2017-08-05T08:24:54.855Z,28.19
2017-08-05T08:25:35.432Z,28.27
2017-08-05T08:26:16.027Z,28.25
2017-08-05T08:26:56.620Z,28.14
2017-08-05T08:27:37.233Z,28.11
2017-08-05T08:28:17.837Z,28.05
2017-08-05T08:28:58.415Z,27.86
2017-08-05T08:29:38.989Z,27.87
2017-08-05T08:30:19.593Z,27.96
2017-08-05T08:31:00.189Z,27.89
2017-08-05T08:31:40.775Z,27.93
2017-08-05T08:32:21.388Z,27.85
2017-08-05T08:33:01.990Z,27.82
2017-08-05T08:33:42.591Z,27.75
2017-08-05T08:34:23.171Z,27.78
2017-08-05T08:35:03.758Z,27.67
2017-08-05T08:35:44.345Z,27.54
2017-08-05T08:36:24.936Z,27.67
2017-08-05T08:37:05.544Z,27.59
2017-08-05T08:37:46.136Z,27.67
2017-08-05T08:38:26.723Z,27.7
2017-08-05T08:39:07.331Z,27.6
2017-08-05T08:39:47.937Z,27.6
2017-08-05T08:40:28.531Z,27.54
2017-08-05T08:41:09.110Z,27.55
2017-08-05T08:41:49.739Z,27.48
2017-08-05T08:42:30.322Z,27.47
2017-08-05T08:43:10.935Z,27.52
2017-08-05T08:43:52.172Z,27.44
2017-08-05T08:44:32.744Z,27.44
2017-08-05T08:45:13.322Z,27.39
2017-08-05T08:45:53.907Z,27.37
2017-08-05T08:46:34.514Z,27.42
2017-08-05T08:47:15.099Z,27.36
2017-08-05T08:47:55.684Z,27.32
2017-08-05T08:48:36.269Z,27.25
2017-08-05T08:49:16.855Z,27.22